sensor_id;sensor_type;location;lat;lon;timestamp;P1;durP1;ratioP1;P2;durP2;ratioP2
5391;SDS011;2719;53.624;9.786;2023-05-19T00:00:23;4.70;;;1.50;;
5391;SDS011;2719;53.624;9.786;2023-05-19T00:02:50;1.40;;;1.30;;
5391;SDS011;2719;53.624;9.786;2023-05-19T00:05:17;3.37;;;1.53;;
5391;SDS011;2719;53.624;9.786;2023-05-19T00:07:44;6.07;;;1.60;;
5391;SDS011;2719;53.624;9.786;2023-05-19T00:10:12;4.90;;;1.57;;
5391;SDS011;2719;53.624;9.786;2023-05-19T00:12:40;7.53;;;1.10;;
5391;SDS011;2719;53.624;9.786;2023-05-19T00:15:08;8.70;;;1.67;;
5391;SDS011;2719;53.624;9.786;2023-05-19T00:17:37;3.03;;;1.43;;
5391;SDS011;2719;53.624;9.786;2023-05-19T00:20:06;6.87;;;1.53;;
5391;SDS011;2719;53.624;9.786;2023-05-19T00:22:33;4.37;;;2.10;;
5391;SDS011;2719;53.624;9.786;2023-05-19T00:25:00;1.17;;;1.00;;
5391;SDS011;2719;53.624;9.786;2023-05-19T00:27:28;5.07;;;1.60;;
5391;SDS011;2719;53.624;9.786;2023-05-19T00:29:54;2.40;;;1.50;;
5391;SDS011;2719;53.624;9.786;2023-05-19T00:32:21;6.23;;;1.53;;
5391;SDS011;2719;53.624;9.786;2023-05-19T00:34:49;6.40;;;1.87;;
5391;SDS011;2719;53.624;9.786;2023-05-19T00:37:15;7.03;;;1.17;;
5391;SDS011;2719;53.624;9.786;2023-05-19T00:39:42;6.63;;;1.77;;
5391;SDS011;2719;53.624;9.786;2023-05-19T00:42:09;5.70;;;1.67;;
5391;SDS011;2719;53.624;9.786;2023-05-19T00:44:35;2.50;;;1.37;;
5391;SDS011;2719;53.624;9.786;2023-05-19T00:47:04;5.07;;;1.73;;
5391;SDS011;2719;53.624;9.786;2023-05-19T00:49:31;5.57;;;1.30;;
5391;SDS011;2719;53.624;9.786;2023-05-19T00:51:59;5.80;;;2.03;;
5391;SDS011;2719;53.624;9.786;2023-05-19T00:54:27;4.77;;;1.50;;
5391;SDS011;2719;53.624;9.786;2023-05-19T00:56:54;7.00;;;2.30;;
5391;SDS011;2719;53.624;9.786;2023-05-19T00:59:22;10.23;;;2.40;;
5391;SDS011;2719;53.624;9.786;2023-05-19T01:01:49;9.40;;;1.70;;
5391;SDS011;2719;53.624;9.786;2023-05-19T01:04:17;7.07;;;1.93;;
5391;SDS011;2719;53.624;9.786;2023-05-19T01:06:45;7.40;;;1.97;;
5391;SDS011;2719;53.624;9.786;2023-05-19T01:09:14;1.83;;;1.00;;
5391;SDS011;2719;53.624;9.786;2023-05-19T01:11:42;10.10;;;2.80;;
5391;SDS011;2719;53.624;9.786;2023-05-19T01:14:08;13.43;;;3.80;;
5391;SDS011;2719;53.624;9.786;2023-05-19T01:16:36;11.93;;;2.13;;
5391;SDS011;2719;53.624;9.786;2023-05-19T01:19:09;5.03;;;1.27;;
5391;SDS011;2719;53.624;9.786;2023-05-19T01:24:48;11.93;;;2.30;;
5391;SDS011;2719;53.624;9.786;2023-05-19T01:27:53;4.63;;;1.43;;
5391;SDS011;2719;53.624;9.786;2023-05-19T01:30:37;2.23;;;1.43;;
5391;SDS011;2719;53.624;9.786;2023-05-19T01:33:06;5.17;;;1.50;;
5391;SDS011;2719;53.624;9.786;2023-05-19T01:35:36;6.57;;;2.50;;
5391;SDS011;2719;53.624;9.786;2023-05-19T01:38:04;5.87;;;3.07;;
5391;SDS011;2719;53.624;9.786;2023-05-19T01:40:33;4.30;;;1.63;;
5391;SDS011;2719;53.624;9.786;2023-05-19T01:43:02;8.33;;;2.00;;
5391;SDS011;2719;53.624;9.786;2023-05-19T01:45:30;3.50;;;1.60;;
5391;SDS011;2719;53.624;9.786;2023-05-19T01:48:00;7.20;;;1.77;;
5391;SDS011;2719;53.624;9.786;2023-05-19T01:50:28;3.67;;;1.70;;
5391;SDS011;2719;53.624;9.786;2023-05-19T01:52:55;3.87;;;1.80;;
5391;SDS011;2719;53.624;9.786;2023-05-19T01:55:22;8.23;;;1.93;;
5391;SDS011;2719;53.624;9.786;2023-05-19T01:57:52;4.37;;;1.70;;
5391;SDS011;2719;53.624;9.786;2023-05-19T02:00:27;10.70;;;1.73;;
5391;SDS011;2719;53.624;9.786;2023-05-19T02:03:12;5.03;;;1.63;;
5391;SDS011;2719;53.624;9.786;2023-05-19T02:05:49;9.37;;;1.80;;
5391;SDS011;2719;53.624;9.786;2023-05-19T02:08:19;7.53;;;2.17;;
5391;SDS011;2719;53.624;9.786;2023-05-19T02:10:54;14.23;;;2.60;;
5391;SDS011;2719;53.624;9.786;2023-05-19T02:13:27;7.97;;;2.03;;
5391;SDS011;2719;53.624;9.786;2023-05-19T02:15:59;4.97;;;1.40;;
5391;SDS011;2719;53.624;9.786;2023-05-19T02:18:31;6.43;;;1.80;;
5391;SDS011;2719;53.624;9.786;2023-05-19T02:20:59;4.93;;;1.73;;
5391;SDS011;2719;53.624;9.786;2023-05-19T02:23:26;10.93;;;2.13;;
5391;SDS011;2719;53.624;9.786;2023-05-19T02:25:52;7.70;;;2.23;;
5391;SDS011;2719;53.624;9.786;2023-05-19T02:28:19;6.47;;;2.10;;
5391;SDS011;2719;53.624;9.786;2023-05-19T02:30:45;2.50;;;1.20;;
5391;SDS011;2719;53.624;9.786;2023-05-19T02:33:12;9.20;;;2.17;;
5391;SDS011;2719;53.624;9.786;2023-05-19T02:35:40;4.97;;;2.00;;
5391;SDS011;2719;53.624;9.786;2023-05-19T02:38:07;10.50;;;2.43;;
5391;SDS011;2719;53.624;9.786;2023-05-19T02:40:33;4.60;;;1.60;;
5391;SDS011;2719;53.624;9.786;2023-05-19T02:43:00;6.50;;;1.53;;
5391;SDS011;2719;53.624;9.786;2023-05-19T02:45:27;13.67;;;1.87;;
5391;SDS011;2719;53.624;9.786;2023-05-19T02:47:54;8.30;;;2.73;;
5391;SDS011;2719;53.624;9.786;2023-05-19T02:50:20;3.20;;;1.53;;
5391;SDS011;2719;53.624;9.786;2023-05-19T02:52:48;11.93;;;1.87;;
5391;SDS011;2719;53.624;9.786;2023-05-19T02:55:16;9.17;;;2.30;;
5391;SDS011;2719;53.624;9.786;2023-05-19T02:57:43;11.50;;;2.10;;
5391;SDS011;2719;53.624;9.786;2023-05-19T03:00:10;7.07;;;2.33;;
5391;SDS011;2719;53.624;9.786;2023-05-19T03:02:37;5.73;;;2.37;;
5391;SDS011;2719;53.624;9.786;2023-05-19T03:05:05;9.53;;;2.00;;
5391;SDS011;2719;53.624;9.786;2023-05-19T03:07:34;8.17;;;2.37;;
5391;SDS011;2719;53.624;9.786;2023-05-19T03:10:02;6.30;;;1.60;;
5391;SDS011;2719;53.624;9.786;2023-05-19T03:12:30;4.10;;;1.73;;
5391;SDS011;2719;53.624;9.786;2023-05-19T03:14:57;7.83;;;2.10;;
5391;SDS011;2719;53.624;9.786;2023-05-19T03:17:24;3.57;;;1.90;;
5391;SDS011;2719;53.624;9.786;2023-05-19T03:19:51;9.13;;;2.33;;
5391;SDS011;2719;53.624;9.786;2023-05-19T03:22:18;5.57;;;2.60;;
5391;SDS011;2719;53.624;9.786;2023-05-19T03:24:44;5.87;;;2.20;;
5391;SDS011;2719;53.624;9.786;2023-05-19T03:27:15;9.63;;;2.40;;
5391;SDS011;2719;53.624;9.786;2023-05-19T03:29:41;5.10;;;2.63;;
5391;SDS011;2719;53.624;9.786;2023-05-19T03:32:08;8.03;;;2.10;;
5391;SDS011;2719;53.624;9.786;2023-05-19T03:34:35;16.40;;;2.77;;
5391;SDS011;2719;53.624;9.786;2023-05-19T03:37:01;9.03;;;2.20;;
5391;SDS011;2719;53.624;9.786;2023-05-19T03:39:28;8.30;;;1.90;;
5391;SDS011;2719;53.624;9.786;2023-05-19T03:41:55;4.47;;;1.90;;
5391;SDS011;2719;53.624;9.786;2023-05-19T03:44:23;10.37;;;2.80;;
5391;SDS011;2719;53.624;9.786;2023-05-19T03:46:49;4.57;;;2.07;;
5391;SDS011;2719;53.624;9.786;2023-05-19T03:49:16;6.33;;;2.20;;
5391;SDS011;2719;53.624;9.786;2023-05-19T03:51:43;6.47;;;3.67;;
5391;SDS011;2719;53.624;9.786;2023-05-19T03:54:10;6.30;;;1.73;;
5391;SDS011;2719;53.624;9.786;2023-05-19T03:56:37;7.03;;;1.60;;
5391;SDS011;2719;53.624;9.786;2023-05-19T03:59:05;19.30;;;2.50;;
5391;SDS011;2719;53.624;9.786;2023-05-19T04:01:33;7.40;;;2.70;;
5391;SDS011;2719;53.624;9.786;2023-05-19T04:04:00;4.63;;;1.53;;
5391;SDS011;2719;53.624;9.786;2023-05-19T04:06:27;3.93;;;2.40;;
5391;SDS011;2719;53.624;9.786;2023-05-19T04:08:53;5.63;;;2.50;;
5391;SDS011;2719;53.624;9.786;2023-05-19T04:11:20;9.93;;;2.63;;
5391;SDS011;2719;53.624;9.786;2023-05-19T04:13:46;4.97;;;2.53;;
5391;SDS011;2719;53.624;9.786;2023-05-19T04:16:13;4.00;;;2.50;;
5391;SDS011;2719;53.624;9.786;2023-05-19T04:18:41;4.67;;;1.30;;
5391;SDS011;2719;53.624;9.786;2023-05-19T04:21:10;6.80;;;2.13;;
5391;SDS011;2719;53.624;9.786;2023-05-19T04:23:36;5.03;;;1.80;;
5391;SDS011;2719;53.624;9.786;2023-05-19T04:26:03;8.73;;;2.60;;
5391;SDS011;2719;53.624;9.786;2023-05-19T04:28:30;10.30;;;2.57;;
5391;SDS011;2719;53.624;9.786;2023-05-19T04:30:59;7.10;;;2.63;;
5391;SDS011;2719;53.624;9.786;2023-05-19T04:33:27;4.83;;;1.80;;
5391;SDS011;2719;53.624;9.786;2023-05-19T04:35:55;17.13;;;2.37;;
5391;SDS011;2719;53.624;9.786;2023-05-19T04:38:22;6.40;;;2.50;;
5391;SDS011;2719;53.624;9.786;2023-05-19T04:40:48;5.00;;;2.23;;
5391;SDS011;2719;53.624;9.786;2023-05-19T04:43:15;6.33;;;2.87;;
5391;SDS011;2719;53.624;9.786;2023-05-19T04:45:43;8.13;;;2.60;;
5391;SDS011;2719;53.624;9.786;2023-05-19T04:48:11;13.60;;;2.80;;
5391;SDS011;2719;53.624;9.786;2023-05-19T04:50:37;6.13;;;2.30;;
5391;SDS011;2719;53.624;9.786;2023-05-19T04:53:07;6.80;;;2.57;;
5391;SDS011;2719;53.624;9.786;2023-05-19T04:55:34;2.70;;;1.90;;
5391;SDS011;2719;53.624;9.786;2023-05-19T04:58:01;3.90;;;2.30;;
5391;SDS011;2719;53.624;9.786;2023-05-19T05:00:28;3.57;;;2.03;;
5391;SDS011;2719;53.624;9.786;2023-05-19T05:02:55;11.50;;;2.37;;
5391;SDS011;2719;53.624;9.786;2023-05-19T05:05:22;4.77;;;1.97;;
5391;SDS011;2719;53.624;9.786;2023-05-19T05:07:49;8.03;;;2.07;;
5391;SDS011;2719;53.624;9.786;2023-05-19T05:10:19;12.90;;;2.10;;
5391;SDS011;2719;53.624;9.786;2023-05-19T05:12:46;7.20;;;2.10;;
5391;SDS011;2719;53.624;9.786;2023-05-19T05:15:13;4.83;;;2.40;;
5391;SDS011;2719;53.624;9.786;2023-05-19T05:17:40;9.17;;;2.93;;
5391;SDS011;2719;53.624;9.786;2023-05-19T05:20:08;9.73;;;2.73;;
5391;SDS011;2719;53.624;9.786;2023-05-19T05:22:36;7.93;;;2.47;;
5391;SDS011;2719;53.624;9.786;2023-05-19T05:25:04;4.93;;;2.20;;
5391;SDS011;2719;53.624;9.786;2023-05-19T05:27:33;8.23;;;2.73;;
5391;SDS011;2719;53.624;9.786;2023-05-19T05:29:59;8.20;;;2.80;;
5391;SDS011;2719;53.624;9.786;2023-05-19T05:32:26;7.93;;;2.67;;
5391;SDS011;2719;53.624;9.786;2023-05-19T05:34:53;7.77;;;2.60;;
5391;SDS011;2719;53.624;9.786;2023-05-19T05:37:20;11.50;;;2.27;;
5391;SDS011;2719;53.624;9.786;2023-05-19T05:39:46;8.50;;;2.80;;
5391;SDS011;2719;53.624;9.786;2023-05-19T05:42:13;8.23;;;2.30;;
5391;SDS011;2719;53.624;9.786;2023-05-19T05:44:41;8.77;;;2.80;;
5391;SDS011;2719;53.624;9.786;2023-05-19T05:47:08;5.67;;;2.87;;
5391;SDS011;2719;53.624;9.786;2023-05-19T05:49:36;9.40;;;2.87;;
5391;SDS011;2719;53.624;9.786;2023-05-19T05:52:04;12.70;;;2.30;;
5391;SDS011;2719;53.624;9.786;2023-05-19T05:54:33;7.63;;;2.43;;
5391;SDS011;2719;53.624;9.786;2023-05-19T05:57:00;5.97;;;2.17;;
5391;SDS011;2719;53.624;9.786;2023-05-19T05:59:28;3.33;;;1.83;;
5391;SDS011;2719;53.624;9.786;2023-05-19T06:01:56;7.60;;;2.47;;
5391;SDS011;2719;53.624;9.786;2023-05-19T06:04:22;4.93;;;2.10;;
5391;SDS011;2719;53.624;9.786;2023-05-19T06:06:49;11.60;;;2.27;;
5391;SDS011;2719;53.624;9.786;2023-05-19T06:09:17;10.80;;;3.37;;
5391;SDS011;2719;53.624;9.786;2023-05-19T06:11:43;6.63;;;2.60;;
5391;SDS011;2719;53.624;9.786;2023-05-19T06:14:10;5.70;;;1.87;;
5391;SDS011;2719;53.624;9.786;2023-05-19T06:16:37;5.33;;;2.40;;
5391;SDS011;2719;53.624;9.786;2023-05-19T06:19:05;6.43;;;2.10;;
5391;SDS011;2719;53.624;9.786;2023-05-19T06:21:31;6.90;;;2.03;;
5391;SDS011;2719;53.624;9.786;2023-05-19T06:23:58;9.73;;;1.90;;
5391;SDS011;2719;53.624;9.786;2023-05-19T06:26:25;8.57;;;2.83;;
5391;SDS011;2719;53.624;9.786;2023-05-19T06:28:51;14.50;;;2.20;;
5391;SDS011;2719;53.624;9.786;2023-05-19T06:31:18;8.30;;;2.13;;
5391;SDS011;2719;53.624;9.786;2023-05-19T06:33:45;8.57;;;2.20;;
5391;SDS011;2719;53.624;9.786;2023-05-19T06:36:13;7.97;;;1.90;;
5391;SDS011;2719;53.624;9.786;2023-05-19T06:38:40;14.30;;;1.90;;
5391;SDS011;2719;53.624;9.786;2023-05-19T06:41:06;5.80;;;2.10;;
5391;SDS011;2719;53.624;9.786;2023-05-19T06:43:33;6.13;;;2.13;;
5391;SDS011;2719;53.624;9.786;2023-05-19T06:46:00;6.00;;;1.80;;
5391;SDS011;2719;53.624;9.786;2023-05-19T06:48:26;5.50;;;2.07;;
5391;SDS011;2719;53.624;9.786;2023-05-19T06:50:53;5.97;;;2.07;;
5391;SDS011;2719;53.624;9.786;2023-05-19T06:53:21;12.80;;;2.30;;
5391;SDS011;2719;53.624;9.786;2023-05-19T06:55:48;4.43;;;1.77;;
5391;SDS011;2719;53.624;9.786;2023-05-19T06:58:15;4.70;;;1.33;;
5391;SDS011;2719;53.624;9.786;2023-05-19T07:00:42;4.53;;;0.73;;
5391;SDS011;2719;53.624;9.786;2023-05-19T07:03:09;8.93;;;2.10;;
5391;SDS011;2719;53.624;9.786;2023-05-19T07:05:35;9.20;;;1.10;;
5391;SDS011;2719;53.624;9.786;2023-05-19T07:08:02;14.60;;;2.20;;
5391;SDS011;2719;53.624;9.786;2023-05-19T07:10:32;9.37;;;1.40;;
5391;SDS011;2719;53.624;9.786;2023-05-19T07:12:58;8.53;;;1.37;;
5391;SDS011;2719;53.624;9.786;2023-05-19T07:15:25;12.53;;;1.70;;
5391;SDS011;2719;53.624;9.786;2023-05-19T07:17:51;8.63;;;1.30;;
5391;SDS011;2719;53.624;9.786;2023-05-19T07:20:18;3.53;;;1.30;;
5391;SDS011;2719;53.624;9.786;2023-05-19T07:22:45;14.07;;;1.83;;
5391;SDS011;2719;53.624;9.786;2023-05-19T07:25:12;10.60;;;2.20;;
5391;SDS011;2719;53.624;9.786;2023-05-19T07:27:40;7.27;;;1.70;;
5391;SDS011;2719;53.624;9.786;2023-05-19T07:30:07;10.23;;;1.20;;
5391;SDS011;2719;53.624;9.786;2023-05-19T07:32:34;4.10;;;1.17;;
5391;SDS011;2719;53.624;9.786;2023-05-19T07:35:00;5.03;;;1.70;;
5391;SDS011;2719;53.624;9.786;2023-05-19T07:37:27;2.97;;;1.20;;
5391;SDS011;2719;53.624;9.786;2023-05-19T07:39:54;8.53;;;1.80;;
5391;SDS011;2719;53.624;9.786;2023-05-19T07:42:20;7.20;;;1.23;;
5391;SDS011;2719;53.624;9.786;2023-05-19T07:44:48;3.00;;;1.50;;
5391;SDS011;2719;53.624;9.786;2023-05-19T07:47:15;11.10;;;1.63;;
5391;SDS011;2719;53.624;9.786;2023-05-19T07:49:41;12.93;;;1.30;;
5391;SDS011;2719;53.624;9.786;2023-05-19T07:52:08;7.77;;;1.30;;
5391;SDS011;2719;53.624;9.786;2023-05-19T07:54:35;8.00;;;1.30;;
5391;SDS011;2719;53.624;9.786;2023-05-19T07:57:01;7.50;;;1.30;;
5391;SDS011;2719;53.624;9.786;2023-05-19T07:59:28;8.43;;;1.50;;
5391;SDS011;2719;53.624;9.786;2023-05-19T08:01:56;6.93;;;1.70;;
5391;SDS011;2719;53.624;9.786;2023-05-19T08:04:23;6.60;;;1.27;;
5391;SDS011;2719;53.624;9.786;2023-05-19T08:06:50;12.33;;;1.60;;
5391;SDS011;2719;53.624;9.786;2023-05-19T08:09:17;7.97;;;1.40;;
5391;SDS011;2719;53.624;9.786;2023-05-19T08:11:44;6.60;;;1.30;;
5391;SDS011;2719;53.624;9.786;2023-05-19T08:14:11;13.70;;;0.87;;
5391;SDS011;2719;53.624;9.786;2023-05-19T08:16:37;3.40;;;1.20;;
5391;SDS011;2719;53.624;9.786;2023-05-19T08:19:07;6.07;;;1.40;;
5391;SDS011;2719;53.624;9.786;2023-05-19T08:21:34;3.13;;;1.53;;
5391;SDS011;2719;53.624;9.786;2023-05-19T08:24:01;5.67;;;1.23;;
5391;SDS011;2719;53.624;9.786;2023-05-19T08:26:28;7.03;;;1.43;;
5391;SDS011;2719;53.624;9.786;2023-05-19T08:28:55;6.13;;;1.43;;
5391;SDS011;2719;53.624;9.786;2023-05-19T08:31:21;9.50;;;1.50;;
5391;SDS011;2719;53.624;9.786;2023-05-19T08:33:48;10.63;;;1.57;;
5391;SDS011;2719;53.624;9.786;2023-05-19T08:36:16;10.73;;;1.43;;
5391;SDS011;2719;53.624;9.786;2023-05-19T08:38:43;10.43;;;1.50;;
5391;SDS011;2719;53.624;9.786;2023-05-19T08:41:10;10.90;;;1.27;;
5391;SDS011;2719;53.624;9.786;2023-05-19T08:43:37;2.20;;;1.40;;
5391;SDS011;2719;53.624;9.786;2023-05-19T08:46:04;9.93;;;1.50;;
5391;SDS011;2719;53.624;9.786;2023-05-19T08:48:32;6.03;;;2.33;;
5391;SDS011;2719;53.624;9.786;2023-05-19T08:51:03;16.93;;;2.40;;
5391;SDS011;2719;53.624;9.786;2023-05-19T08:53:40;1.77;;;0.80;;
5391;SDS011;2719;53.624;9.786;2023-05-19T08:56:10;4.60;;;0.90;;
5391;SDS011;2719;53.624;9.786;2023-05-19T08:58:41;5.03;;;1.17;;
5391;SDS011;2719;53.624;9.786;2023-05-19T09:01:10;8.70;;;1.67;;
5391;SDS011;2719;53.624;9.786;2023-05-19T09:03:40;3.43;;;1.00;;
5391;SDS011;2719;53.624;9.786;2023-05-19T09:06:09;14.70;;;1.57;;
5391;SDS011;2719;53.624;9.786;2023-05-19T09:08:36;6.50;;;2.50;;
5391;SDS011;2719;53.624;9.786;2023-05-19T09:11:04;15.77;;;1.43;;
5391;SDS011;2719;53.624;9.786;2023-05-19T09:13:31;8.87;;;0.90;;
5391;SDS011;2719;53.624;9.786;2023-05-19T09:15:58;4.10;;;0.70;;
5391;SDS011;2719;53.624;9.786;2023-05-19T09:18:26;7.00;;;1.57;;
5391;SDS011;2719;53.624;9.786;2023-05-19T09:20:55;2.20;;;1.00;;
5391;SDS011;2719;53.624;9.786;2023-05-19T09:23:25;3.43;;;0.93;;
5391;SDS011;2719;53.624;9.786;2023-05-19T09:25:53;5.90;;;1.30;;
5391;SDS011;2719;53.624;9.786;2023-05-19T09:28:26;14.10;;;1.30;;
5391;SDS011;2719;53.624;9.786;2023-05-19T09:30:57;11.10;;;0.90;;
5391;SDS011;2719;53.624;9.786;2023-05-19T09:33:25;4.97;;;1.07;;
5391;SDS011;2719;53.624;9.786;2023-05-19T09:35:52;9.23;;;1.07;;
5391;SDS011;2719;53.624;9.786;2023-05-19T09:38:19;6.67;;;1.17;;
5391;SDS011;2719;53.624;9.786;2023-05-19T09:40:47;12.97;;;1.57;;
5391;SDS011;2719;53.624;9.786;2023-05-19T09:43:15;5.87;;;0.97;;
5391;SDS011;2719;53.624;9.786;2023-05-19T09:45:43;8.83;;;1.23;;
5391;SDS011;2719;53.624;9.786;2023-05-19T09:48:10;4.67;;;1.20;;
5391;SDS011;2719;53.624;9.786;2023-05-19T09:50:36;17.37;;;2.07;;
5391;SDS011;2719;53.624;9.786;2023-05-19T09:53:03;4.00;;;1.67;;
5391;SDS011;2719;53.624;9.786;2023-05-19T09:55:30;4.20;;;0.70;;
5391;SDS011;2719;53.624;9.786;2023-05-19T09:57:57;4.10;;;1.17;;
5391;SDS011;2719;53.624;9.786;2023-05-19T10:00:27;9.93;;;1.00;;
5391;SDS011;2719;53.624;9.786;2023-05-19T10:02:57;8.03;;;1.50;;
5391;SDS011;2719;53.624;9.786;2023-05-19T10:05:25;2.87;;;1.03;;
5391;SDS011;2719;53.624;9.786;2023-05-19T10:07:52;4.00;;;1.10;;
5391;SDS011;2719;53.624;9.786;2023-05-19T10:10:20;4.43;;;1.70;;
5391;SDS011;2719;53.624;9.786;2023-05-19T10:12:47;5.20;;;1.00;;
5391;SDS011;2719;53.624;9.786;2023-05-19T10:15:14;5.07;;;1.10;;
5391;SDS011;2719;53.624;9.786;2023-05-19T10:17:43;3.63;;;0.90;;
5391;SDS011;2719;53.624;9.786;2023-05-19T10:20:12;4.10;;;0.83;;
5391;SDS011;2719;53.624;9.786;2023-05-19T10:22:40;1.83;;;1.10;;
5391;SDS011;2719;53.624;9.786;2023-05-19T10:25:07;6.30;;;1.40;;
5391;SDS011;2719;53.624;9.786;2023-05-19T10:27:36;6.70;;;1.27;;
5391;SDS011;2719;53.624;9.786;2023-05-19T10:30:07;3.27;;;1.57;;
5391;SDS011;2719;53.624;9.786;2023-05-19T10:32:38;5.40;;;1.43;;
5391;SDS011;2719;53.624;9.786;2023-05-19T10:35:30;7.70;;;1.30;;
5391;SDS011;2719;53.624;9.786;2023-05-19T10:38:09;5.23;;;1.70;;
5391;SDS011;2719;53.624;9.786;2023-05-19T10:40:42;3.20;;;1.23;;
5391;SDS011;2719;53.624;9.786;2023-05-19T10:43:20;10.10;;;1.70;;
5391;SDS011;2719;53.624;9.786;2023-05-19T10:45:51;3.93;;;1.30;;
5391;SDS011;2719;53.624;9.786;2023-05-19T10:48:19;6.73;;;1.23;;
5391;SDS011;2719;53.624;9.786;2023-05-19T10:50:48;8.17;;;1.30;;
5391;SDS011;2719;53.624;9.786;2023-05-19T10:53:18;4.73;;;0.90;;
5391;SDS011;2719;53.624;9.786;2023-05-19T10:55:49;5.27;;;1.20;;
5391;SDS011;2719;53.624;9.786;2023-05-19T10:58:36;4.17;;;0.90;;
5391;SDS011;2719;53.624;9.786;2023-05-19T11:01:05;9.73;;;1.00;;
5391;SDS011;2719;53.624;9.786;2023-05-19T11:03:41;3.73;;;1.30;;
5391;SDS011;2719;53.624;9.786;2023-05-19T11:06:23;3.67;;;1.10;;
5391;SDS011;2719;53.624;9.786;2023-05-19T11:08:52;6.87;;;1.37;;
5391;SDS011;2719;53.624;9.786;2023-05-19T11:11:20;6.53;;;1.20;;
5391;SDS011;2719;53.624;9.786;2023-05-19T11:13:47;4.07;;;1.10;;
5391;SDS011;2719;53.624;9.786;2023-05-19T11:16:17;3.07;;;0.80;;
5391;SDS011;2719;53.624;9.786;2023-05-19T11:18:46;3.37;;;1.20;;
5391;SDS011;2719;53.624;9.786;2023-05-19T11:21:14;15.73;;;0.90;;
5391;SDS011;2719;53.624;9.786;2023-05-19T11:23:42;2.37;;;1.00;;
5391;SDS011;2719;53.624;9.786;2023-05-19T11:26:09;4.37;;;1.03;;
5391;SDS011;2719;53.624;9.786;2023-05-19T11:28:35;6.10;;;1.23;;
5391;SDS011;2719;53.624;9.786;2023-05-19T11:31:03;1.90;;;0.70;;
5391;SDS011;2719;53.624;9.786;2023-05-19T11:33:32;3.70;;;1.27;;
5391;SDS011;2719;53.624;9.786;2023-05-19T11:35:59;2.80;;;1.00;;
5391;SDS011;2719;53.624;9.786;2023-05-19T11:38:26;6.07;;;1.73;;
5391;SDS011;2719;53.624;9.786;2023-05-19T11:40:55;6.90;;;1.23;;
5391;SDS011;2719;53.624;9.786;2023-05-19T11:43:22;4.77;;;0.90;;
5391;SDS011;2719;53.624;9.786;2023-05-19T11:45:49;6.00;;;1.07;;
5391;SDS011;2719;53.624;9.786;2023-05-19T11:48:19;8.53;;;1.20;;
5391;SDS011;2719;53.624;9.786;2023-05-19T11:50:46;12.43;;;1.20;;
5391;SDS011;2719;53.624;9.786;2023-05-19T11:53:13;2.17;;;1.10;;
5391;SDS011;2719;53.624;9.786;2023-05-19T11:55:41;3.50;;;0.90;;
5391;SDS011;2719;53.624;9.786;2023-05-19T11:58:11;3.37;;;0.80;;
5391;SDS011;2719;53.624;9.786;2023-05-19T12:00:38;9.37;;;0.80;;
5391;SDS011;2719;53.624;9.786;2023-05-19T12:03:06;11.13;;;1.10;;
5391;SDS011;2719;53.624;9.786;2023-05-19T12:05:35;5.43;;;0.97;;
5391;SDS011;2719;53.624;9.786;2023-05-19T12:08:03;2.93;;;0.77;;
5391;SDS011;2719;53.624;9.786;2023-05-19T12:10:30;3.23;;;1.00;;
5391;SDS011;2719;53.624;9.786;2023-05-19T12:12:59;1.70;;;0.57;;
5391;SDS011;2719;53.624;9.786;2023-05-19T12:15:28;3.63;;;1.20;;
5391;SDS011;2719;53.624;9.786;2023-05-19T12:17:58;5.90;;;0.90;;
5391;SDS011;2719;53.624;9.786;2023-05-19T12:20:25;9.63;;;1.00;;
5391;SDS011;2719;53.624;9.786;2023-05-19T12:22:55;3.53;;;1.00;;
5391;SDS011;2719;53.624;9.786;2023-05-19T12:25:23;2.83;;;0.83;;
5391;SDS011;2719;53.624;9.786;2023-05-19T12:27:50;4.00;;;0.83;;
5391;SDS011;2719;53.624;9.786;2023-05-19T12:30:23;2.07;;;0.87;;
5391;SDS011;2719;53.624;9.786;2023-05-19T12:32:53;3.60;;;1.00;;
5391;SDS011;2719;53.624;9.786;2023-05-19T12:35:24;4.43;;;0.70;;
5391;SDS011;2719;53.624;9.786;2023-05-19T12:37:51;5.37;;;0.90;;
5391;SDS011;2719;53.624;9.786;2023-05-19T12:40:18;7.80;;;1.47;;
5391;SDS011;2719;53.624;9.786;2023-05-19T12:42:46;4.67;;;0.93;;
5391;SDS011;2719;53.624;9.786;2023-05-19T12:45:13;3.83;;;0.60;;
5391;SDS011;2719;53.624;9.786;2023-05-19T12:47:40;6.40;;;0.50;;
5391;SDS011;2719;53.624;9.786;2023-05-19T12:50:08;2.87;;;0.90;;
5391;SDS011;2719;53.624;9.786;2023-05-19T12:52:40;1.57;;;0.77;;
5391;SDS011;2719;53.624;9.786;2023-05-19T12:55:07;5.27;;;0.83;;
5391;SDS011;2719;53.624;9.786;2023-05-19T12:57:35;5.17;;;1.33;;
5391;SDS011;2719;53.624;9.786;2023-05-19T13:00:03;8.27;;;0.80;;
5391;SDS011;2719;53.624;9.786;2023-05-19T13:02:32;4.40;;;1.33;;
5391;SDS011;2719;53.624;9.786;2023-05-19T13:04:59;4.63;;;0.93;;
5391;SDS011;2719;53.624;9.786;2023-05-19T13:07:27;4.40;;;0.63;;
5391;SDS011;2719;53.624;9.786;2023-05-19T13:09:54;1.97;;;0.80;;
5391;SDS011;2719;53.624;9.786;2023-05-19T13:12:22;2.73;;;0.80;;
5391;SDS011;2719;53.624;9.786;2023-05-19T13:14:50;3.23;;;0.70;;
5391;SDS011;2719;53.624;9.786;2023-05-19T13:17:17;6.27;;;0.50;;
5391;SDS011;2719;53.624;9.786;2023-05-19T13:19:44;4.90;;;0.90;;
5391;SDS011;2719;53.624;9.786;2023-05-19T13:22:11;3.30;;;0.60;;
5391;SDS011;2719;53.624;9.786;2023-05-19T13:24:39;2.80;;;0.97;;
5391;SDS011;2719;53.624;9.786;2023-05-19T13:27:07;6.53;;;1.23;;
5391;SDS011;2719;53.624;9.786;2023-05-19T13:29:34;4.43;;;1.77;;
5391;SDS011;2719;53.624;9.786;2023-05-19T13:32:01;10.50;;;0.73;;
5391;SDS011;2719;53.624;9.786;2023-05-19T13:34:28;4.50;;;0.90;;
5391;SDS011;2719;53.624;9.786;2023-05-19T13:36:55;5.13;;;1.00;;
5391;SDS011;2719;53.624;9.786;2023-05-19T13:39:22;3.33;;;0.90;;
5391;SDS011;2719;53.624;9.786;2023-05-19T13:41:50;4.83;;;0.80;;
5391;SDS011;2719;53.624;9.786;2023-05-19T13:44:17;1.90;;;0.73;;
5391;SDS011;2719;53.624;9.786;2023-05-19T13:46:44;4.37;;;0.60;;
5391;SDS011;2719;53.624;9.786;2023-05-19T13:49:11;3.57;;;0.70;;
5391;SDS011;2719;53.624;9.786;2023-05-19T13:51:40;7.50;;;0.90;;
5391;SDS011;2719;53.624;9.786;2023-05-19T13:54:08;2.40;;;0.80;;
5391;SDS011;2719;53.624;9.786;2023-05-19T13:56:35;3.17;;;0.60;;
5391;SDS011;2719;53.624;9.786;2023-05-19T13:59:03;3.70;;;1.00;;
5391;SDS011;2719;53.624;9.786;2023-05-19T14:01:31;2.27;;;0.70;;
5391;SDS011;2719;53.624;9.786;2023-05-19T14:03:58;7.80;;;1.17;;
5391;SDS011;2719;53.624;9.786;2023-05-19T14:06:25;5.70;;;0.70;;
5391;SDS011;2719;53.624;9.786;2023-05-19T14:08:52;3.37;;;0.60;;
5391;SDS011;2719;53.624;9.786;2023-05-19T14:11:19;2.20;;;0.63;;
5391;SDS011;2719;53.624;9.786;2023-05-19T14:13:46;4.13;;;0.90;;
5391;SDS011;2719;53.624;9.786;2023-05-19T14:16:15;5.40;;;0.70;;
5391;SDS011;2719;53.624;9.786;2023-05-19T14:18:42;3.27;;;0.70;;
5391;SDS011;2719;53.624;9.786;2023-05-19T14:21:09;1.80;;;0.87;;
5391;SDS011;2719;53.624;9.786;2023-05-19T14:23:37;2.93;;;0.60;;
5391;SDS011;2719;53.624;9.786;2023-05-19T14:26:04;15.33;;;0.80;;
5391;SDS011;2719;53.624;9.786;2023-05-19T14:28:31;7.60;;;0.80;;
5391;SDS011;2719;53.624;9.786;2023-05-19T14:30:58;2.27;;;0.80;;
5391;SDS011;2719;53.624;9.786;2023-05-19T14:33:26;3.00;;;0.57;;
5391;SDS011;2719;53.624;9.786;2023-05-19T14:35:53;8.83;;;0.87;;
5391;SDS011;2719;53.624;9.786;2023-05-19T14:38:23;8.43;;;0.63;;
5391;SDS011;2719;53.624;9.786;2023-05-19T14:40:50;4.30;;;0.70;;
5391;SDS011;2719;53.624;9.786;2023-05-19T14:43:17;2.50;;;0.80;;
5391;SDS011;2719;53.624;9.786;2023-05-19T14:45:44;2.60;;;0.60;;
5391;SDS011;2719;53.624;9.786;2023-05-19T14:48:11;1.63;;;0.70;;
5391;SDS011;2719;53.624;9.786;2023-05-19T14:50:40;1.60;;;0.70;;
5391;SDS011;2719;53.624;9.786;2023-05-19T14:53:07;1.07;;;0.90;;
5391;SDS011;2719;53.624;9.786;2023-05-19T14:55:34;0.87;;;0.53;;
5391;SDS011;2719;53.624;9.786;2023-05-19T14:58:01;1.40;;;0.70;;
5391;SDS011;2719;53.624;9.786;2023-05-19T15:00:28;1.80;;;0.63;;
5391;SDS011;2719;53.624;9.786;2023-05-19T15:02:55;1.63;;;0.60;;
5391;SDS011;2719;53.624;9.786;2023-05-19T15:05:22;0.90;;;0.70;;
5391;SDS011;2719;53.624;9.786;2023-05-19T15:07:50;1.40;;;0.70;;
5391;SDS011;2719;53.624;9.786;2023-05-19T15:10:17;3.07;;;0.70;;
5391;SDS011;2719;53.624;9.786;2023-05-19T15:12:45;3.60;;;0.70;;
5391;SDS011;2719;53.624;9.786;2023-05-19T15:15:12;8.80;;;0.70;;
5391;SDS011;2719;53.624;9.786;2023-05-19T15:17:41;3.33;;;0.70;;
5391;SDS011;2719;53.624;9.786;2023-05-19T15:20:10;1.73;;;0.70;;